Time;durP1;ratioP1;P1;durP2;ratioP2;P2;SDS_P1;SDS_P2;PMS_P1;PMS_P2;Temp;Humidity;BMP_temperature;BMP_pressure;BME280_temperature;BME280_humidity;BME280_pressure;Samples;Min_cycle;Max_cycle;Signal;HPM_P1;HPM_P2
2020/12/17 05:03:31;;;;;;;38.03;18.92;;;;;;;4.22;74.48;100522.91;5022361;28;20093;-54
2020/12/17 05:06:02;;;;;;;35.83;18.85;;;;;;;3.61;75.22;100525.09;4991126;28;20038;-56
2020/12/17 05:08:27;;;;;;;33.10;17.73;;;;;;;3.96;75.25;100531.13;4991944;28;20041;-56
2020/12/17 05:10:52;;;;;;;35.88;18.02;;;;;;;3.66;76.24;100523.78;5014174;28;20037;-53
2020/12/17 05:13:18;;;;;;;32.05;16.30;;;;;;;3.62;76.07;100525.94;5012597;28;20118;-55
2020/12/17 05:15:44;;;;;;;39.85;18.15;;;;;;;3.80;79.22;100523.97;5011811;28;20065;-55
2020/12/17 05:18:11;;;;;;;34.80;18.02;;;;;;;3.49;76.68;100517.56;5026519;28;20041;-55
2020/12/17 05:20:39;;;;;;;40.20;19.08;;;;;;;3.68;75.81;100525.28;5042884;28;20532;-55
2020/12/17 05:23:05;;;;;;;33.25;16.33;;;;;;;4.82;76.78;100517.88;5010637;28;20041;-53
2020/12/17 05:25:31;;;;;;;36.65;19.10;;;;;;;4.56;79.25;100518.13;5009673;28;20516;-52
2020/12/17 05:27:59;;;;;;;39.70;19.27;;;;;;;3.91;74.55;100526.28;5009259;28;20037;-52
2020/12/17 05:30:35;;;;;;;39.67;19.90;;;;;;;3.80;75.33;100523.97;5024208;28;20120;-56
2020/12/17 05:33:03;;;;;;;41.35;20.65;;;;;;;3.92;75.89;100522.59;5027059;28;20045;-53
2020/12/17 05:35:34;;;;;;;38.45;21.10;;;;;;;3.97;78.38;100530.97;5010924;28;20041;-54
2020/12/17 05:38:03;;;;;;;41.13;21.10;;;;;;;3.67;75.96;100526.28;5007610;28;20410;-54
2020/12/17 05:40:38;;;;;;;40.05;20.50;;;;;;;3.59;75.45;100529.78;5010214;28;20489;-52
2020/12/17 05:43:04;;;;;;;41.22;20.67;;;;;;;3.78;76.53;100541.16;5009384;28;20041;-52
2020/12/17 05:45:30;;;;;;;40.55;20.98;;;;;;;3.84;76.99;100529.78;5028303;28;20032;-53
2020/12/17 05:48:18;;;;;;;44.88;22.20;;;;;;;3.64;74.67;100540.00;5007672;28;20460;-53
2020/12/17 05:50:58;;;;;;;39.45;20.02;;;;;;;3.73;75.36;100533.63;5009786;28;20041;-53
2020/12/17 05:53:28;;;;;;;39.97;19.33;;;;;;;3.82;74.45;100537.97;5025714;28;20041;-55
2020/12/17 05:56:02;;;;;;;39.58;20.45;;;;;;;3.57;76.42;100529.13;5008856;28;20094;-54
2020/12/17 05:58:41;;;;;;;42.20;19.60;;;;;;;3.72;75.22;100525.78;5005169;28;20461;-54
2020/12/17 06:01:08;;;;;;;43.42;20.25;;;;;;;3.72;75.59;100531.13;5025033;28;20037;-53
2020/12/17 06:03:34;;;;;;;37.75;19.88;;;;;;;3.75;75.83;100530.81;5012253;28;20439;-53
2020/12/17 06:06:05;;;;;;;43.08;22.17;;;;;;;3.47;76.01;100539.13;5027300;28;20029;-52
2020/12/17 06:08:38;;;;;;;45.70;23.48;;;;;;;3.62;75.80;100540.16;5011129;28;20405;-53
2020/12/17 06:11:09;;;;;;;43.17;19.88;;;;;;;3.41;76.39;100536.28;5028677;28;20033;-54
2020/12/17 06:13:40;;;;;;;46.47;20.52;;;;;;;3.39;75.72;100531.09;5023035;28;20051;-55
2020/12/17 06:16:08;;;;;;;41.55;20.83;;;;;;;3.82;79.76;100527.28;5025607;28;20041;-54
2020/12/17 06:18:57;;;;;;;37.58;19.65;;;;;;;3.46;76.02;100528.63;5009437;28;20049;-53
2020/12/17 06:21:27;;;;;;;44.97;21.88;;;;;;;3.57;76.39;100529.13;5009963;28;20537;-53
2020/12/17 06:23:59;;;;;;;45.67;21.65;;;;;;;3.83;78.28;100530.78;5009932;28;20037;-53
2020/12/17 06:26:25;;;;;;;44.03;23.55;;;;;;;3.57;76.71;100542.50;5007488;28;20091;-53
2020/12/17 06:28:53;;;;;;;37.45;19.42;;;;;;;3.49;76.15;100552.31;5010654;28;20025;-54
2020/12/17 06:31:25;;;;;;;51.40;22.52;;;;;;;3.53;75.30;100557.19;5006645;28;20094;-53
2020/12/17 06:33:56;;;;;;;42.35;21.15;;;;;;;3.48;75.90;100556.84;5027750;28;20318;-53
2020/12/17 06:36:34;;;;;;;39.92;20.05;;;;;;;3.40;75.26;100562.19;5007732;28;20120;-53
2020/12/17 06:39:07;;;;;;;44.00;20.42;;;;;;;3.48;75.69;100561.34;5009836;28;20068;-53
2020/12/17 06:41:33;;;;;;;45.72;21.60;;;;;;;4.36;80.01;100562.34;5027407;28;20033;-54
2020/12/17 06:43:59;;;;;;;43.67;22.15;;;;;;;3.56;74.85;100566.72;5026260;28;20406;-53
2020/12/17 06:46:30;;;;;;;40.90;20.35;;;;;;;3.46;76.30;100558.84;5005406;28;20045;-54
2020/12/17 06:48:56;;;;;;;45.55;22.80;;;;;;;3.33;75.60;100568.34;4988190;28;20041;-52
2020/12/17 06:51:39;;;;;;;41.45;19.75;;;;;;;3.23;76.69;100566.63;4973711;28;20132;-53
2020/12/17 06:54:27;;;;;;;44.25;21.40;;;;;;;3.41;77.41;100558.50;4991624;28;20049;-53
2020/12/17 06:57:04;;;;;;;41.38;21.92;;;;;;;3.92;75.11;100576.09;5007194;28;20437;-54
2020/12/17 06:59:30;;;;;;;45.90;22.90;;;;;;;3.43;75.50;100571.72;5007132;28;20371;-53
2020/12/17 07:01:56;;;;;;;46.95;20.75;;;;;;;3.27;76.08;100576.00;4977414;28;20514;-53
2020/12/17 07:04:40;;;;;;;46.83;22.15;;;;;;;3.68;75.13;100573.44;5007269;28;20068;-54
2020/12/17 07:07:10;;;;;;;47.05;22.30;;;;;;;3.34;76.23;100570.88;4990330;28;20049;-53
2020/12/17 07:09:35;;;;;;;44.60;21.70;;;;;;;3.29;76.09;100570.50;5007162;28;20045;-54
2020/12/17 07:12:01;;;;;;;46.38;22.75;;;;;;;3.88;77.50;100568.59;4993541;28;20564;-53
2020/12/17 07:14:26;;;;;;;47.35;22.05;;;;;;;4.53;78.12;100568.50;4993964;28;20115;-54
2020/12/17 07:16:59;;;;;;;40.50;20.20;;;;;;;3.84;75.60;100581.44;4991468;28;20309;-53
2020/12/17 07:19:25;;;;;;;44.42;23.15;;;;;;;3.97;74.37;100575.59;4992904;28;20047;-54
2020/12/17 07:22:01;;;;;;;44.70;21.40;;;;;;;3.80;75.50;100571.25;5007653;28;20038;-54
2020/12/17 07:24:33;;;;;;;46.38;22.85;;;;;;;3.59;74.92;100572.56;5002239;28;20120;-53
2020/12/17 07:27:08;;;;;;;44.88;22.25;;;;;;;3.51;75.43;100572.56;5001433;28;20037;-53
2020/12/17 07:30:00;;;;;;;42.92;21.75;;;;;;;3.58;75.75;100578.91;5009351;28;20043;-53
2020/12/17 07:32:37;;;;;;;41.58;21.38;;;;;;;3.51;75.75;100585.91;5016120;28;20036;-54
2020/12/17 07:35:06;;;;;;;42.47;21.40;;;;;;;3.77;74.54;100582.28;5023039;28;20445;-54
2020/12/17 07:37:39;;;;;;;47.30;22.52;;;;;;;3.65;74.88;100589.78;5012314;28;20045;-52
2020/12/17 07:40:16;;;;;;;;;;;;;;;3.48;75.60;100591.59;5019557;28;20124;-53
2020/12/17 07:42:57;;;;;;;48.38;23.58;;;;;;;3.47;75.18;100595.25;5015896;28;19921;-54
2020/12/17 07:45:45;;;;;;;46.15;22.77;;;;;;;3.57;74.92;100605.81;5018488;28;20617;-54
2020/12/17 07:48:46;;;;;;;46.92;22.13;;;;;;;3.36;75.46;100608.91;5003976;28;20494;-53
2020/12/17 07:51:18;;;;;;;48.15;22.48;;;;;;;3.44;75.68;100606.28;5003004;28;20038;-53
2020/12/17 07:53:46;;;;;;;46.45;21.52;;;;;;;3.39;75.40;100600.59;5003091;28;20389;-53
2020/12/17 07:56:12;;;;;;;48.08;22.00;;;;;;;3.38;75.55;100598.91;5013543;28;20083;-52
2020/12/17 07:58:40;;;;;;;45.42;22.05;;;;;;;3.54;74.94;100598.13;5004218;28;20520;-53
2020/12/17 08:01:06;;;;;;;46.22;22.27;;;;;;;3.44;75.69;100600.94;5000651;28;20080;-54
2020/12/17 08:03:41;;;;;;;45.30;21.65;;;;;;;3.63;75.51;100592.63;5013213;28;20064;-54
2020/12/17 08:06:11;;;;;;;49.58;22.33;;;;;;;3.61;74.75;100607.16;5001349;28;20068;-54
2020/12/17 08:08:37;;;;;;;46.35;21.98;;;;;;;3.79;74.21;100601.69;5004515;28;20037;-54
2020/12/17 08:11:05;;;;;;;49.38;21.52;;;;;;;3.87;74.44;100605.19;5023506;28;20506;-53
2020/12/17 08:13:31;;;;;;;44.90;20.60;;;;;;;4.14;74.92;100595.16;5010705;28;20052;-55
2020/12/17 08:16:04;;;;;;;47.78;23.33;;;;;;;4.31;79.28;100599.50;5006403;28;20723;-52
2020/12/17 08:18:32;;;;;;;46.78;22.13;;;;;;;3.71;75.16;100607.84;5011053;28;20051;-54
2020/12/17 08:21:00;;;;;;;44.53;21.70;;;;;;;4.01;76.49;100601.03;5019011;28;20122;-53
2020/12/17 08:23:28;;;;;;;45.25;20.80;;;;;;;3.70;73.97;100600.81;5019728;28;20502;-53
2020/12/17 08:25:53;;;;;;;46.03;22.25;;;;;;;3.67;74.62;100614.53;5009055;28;20131;-53
2020/12/17 08:28:20;;;;;;;45.67;21.10;;;;;;;4.00;74.48;100594.84;5002589;28;20406;-53
2020/12/17 08:30:45;;;;;;;45.92;21.40;;;;;;;3.91;74.26;100600.34;5011080;28;20043;-54
2020/12/17 08:33:12;;;;;;;39.72;20.23;;;;;;;4.23;77.48;100605.69;5011105;28;20048;-54
2020/12/17 08:35:37;;;;;;;39.92;18.38;;;;;;;4.05;73.53;100601.50;5012053;28;20055;-54
2020/12/17 08:38:07;;;;;;;37.20;18.20;;;;;;;3.94;72.73;100595.47;5028737;28;20044;-53
2020/12/17 08:40:44;;;;;;;45.60;22.17;;;;;;;3.90;73.84;100596.00;5012950;28;20040;-55
2020/12/17 08:43:11;;;;;;;40.63;19.50;;;;;;;4.08;73.30;100594.00;5029472;28;20092;-53
2020/12/17 08:45:41;;;;;;;40.90;20.55;;;;;;;4.27;72.56;100600.81;5011786;28;20037;-54
2020/12/17 08:48:18;;;;;;;39.28;19.58;;;;;;;4.18;73.00;100600.00;5002230;28;20530;-54
2020/12/17 08:50:44;;;;;;;39.17;19.83;;;;;;;4.03;72.64;100600.84;5020965;28;20116;-53
2020/12/17 08:53:27;;;;;;;40.08;19.60;;;;;;;4.31;71.76;100613.72;4993274;28;20035;-54
2020/12/17 08:56:10;;;;;;;33.53;18.20;;;;;;;4.40;71.13;100614.53;4993494;28;20048;-53
2020/12/17 08:58:54;;;;;;;35.95;19.90;;;;;;;4.68;74.06;100607.81;5012771;28;20057;-54
2020/12/17 09:01:23;;;;;;;35.42;19.77;;;;;;;4.57;70.18;100626.91;5012505;28;20041;-54
2020/12/17 09:03:50;;;;;;;37.97;20.15;;;;;;;4.88;70.24;100616.28;5012343;28;20052;-54
2020/12/17 09:06:16;;;;;;;37.13;17.83;;;;;;;4.21;71.48;100626.44;5029446;28;20037;-55
2020/12/17 09:08:42;;;;;;;40.65;19.60;;;;;;;4.34;71.35;100620.56;5012907;28;20060;-54
2020/12/17 09:11:34;;;;;;;35.92;18.38;;;;;;;5.08;73.67;100614.03;5012831;28;20644;-53
2020/12/17 09:14:04;;;;;;;33.90;18.10;;;;;;;5.19;73.18;100602.09;5011242;28;20494;-53
2020/12/17 09:16:30;;;;;;;40.40;19.65;;;;;;;4.48;70.83;100619.91;5011376;28;20059;-54
2020/12/17 09:19:02;;;;;;;41.38;20.05;;;;;;;4.56;71.04;100621.72;5025918;28;20048;-54
2020/12/17 09:21:28;;;;;;;36.78;18.38;;;;;;;4.55;71.11;100612.00;5011033;28;20072;-52
2020/12/17 09:23:55;;;;;;;36.00;19.40;;;;;;;4.62;71.08;100613.81;5010794;28;20037;-53
2020/12/17 09:26:21;;;;;;;37.75;17.92;;;;;;;4.78;71.54;100621.00;5010459;28;20041;-54
2020/12/17 09:29:04;;;;;;;33.40;17.65;;;;;;;4.77;70.76;100632.72;5010014;28;20048;-53
2020/12/17 09:31:35;;;;;;;37.80;18.77;;;;;;;4.72;70.63;100621.69;5011641;28;20052;-53
2020/12/17 09:34:06;;;;;;;35.53;18.50;;;;;;;5.11;70.75;100624.41;5008029;28;20182;-55
2020/12/17 09:36:35;;;;;;;36.80;19.30;;;;;;;5.43;70.50;100620.72;5023947;28;20042;-54
2020/12/17 09:39:06;;;;;;;35.92;18.60;;;;;;;5.29;73.25;100616.97;4988879;28;20056;-54
2020/12/17 09:41:31;;;;;;;36.88;17.23;;;;;;;4.89;71.90;100617.13;4991047;28;20120;-55
2020/12/17 09:43:57;;;;;;;37.00;20.30;;;;;;;4.73;70.36;100613.47;4991572;28;20112;-54
2020/12/17 09:46:23;;;;;;;34.88;17.58;;;;;;;4.84;70.91;100595.38;4991465;28;20486;-54
2020/12/17 09:48:48;;;;;;;37.42;18.95;;;;;;;4.71;70.67;100602.09;5006778;28;20388;-55
2020/12/17 09:51:20;;;;;;;40.40;20.10;;;;;;;4.61;71.03;100611.34;4992547;28;20037;-54
2020/12/17 09:53:45;;;;;;;39.67;20.40;;;;;;;4.60;71.59;100618.53;5007094;28;20044;-55
2020/12/17 09:56:13;;;;;;;38.67;18.83;;;;;;;4.53;71.75;100614.00;4998265;28;20033;-54
2020/12/17 09:58:43;;;;;;;42.72;20.52;;;;;;;4.67;71.02;100619.53;5006184;28;20517;-55
2020/12/17 10:01:10;;;;;;;39.20;20.08;;;;;;;5.33;71.60;100609.38;5009695;28;20037;-53
2020/12/17 10:03:35;;;;;;;43.30;21.88;;;;;;;5.10;70.82;100615.53;5010573;28;20053;-54
2020/12/17 10:06:02;;;;;;;40.75;19.50;;;;;;;5.12;71.92;100612.66;5011400;28;20090;-55
2020/12/17 10:08:27;;;;;;;40.30;21.20;;;;;;;5.24;70.57;100611.28;5005456;28;20041;-55
2020/12/17 10:10:53;;;;;;;40.33;20.67;;;;;;;5.15;69.91;100603.47;4992212;28;20095;-55
2020/12/17 10:13:19;;;;;;;39.28;19.55;;;;;;;5.13;70.29;100613.50;4991704;28;20057;-54
2020/12/17 10:15:44;;;;;;;38.40;20.90;;;;;;;5.33;69.71;100596.81;5008204;28;20087;-55
2020/12/17 10:18:10;;;;;;;40.00;20.15;;;;;;;5.12;70.01;100599.28;4991576;28;20045;-54
2020/12/17 10:20:36;;;;;;;38.55;20.02;;;;;;;5.34;70.07;100605.69;4992428;28;20123;-55
2020/12/17 10:23:01;;;;;;;44.05;20.40;;;;;;;5.71;69.98;100595.09;5006251;28;20107;-54
2020/12/17 10:25:27;;;;;;;42.90;21.77;;;;;;;5.40;69.79;100603.16;4991518;28;20091;-54
2020/12/17 10:27:55;;;;;;;39.85;21.00;;;;;;;5.47;72.60;100609.50;5004178;28;20121;-53
2020/12/17 10:30:21;;;;;;;44.88;21.88;;;;;;;5.40;72.57;100589.75;5006884;28;20507;-54
2020/12/17 10:32:47;;;;;;;38.58;19.75;;;;;;;5.83;69.84;100601.72;5000444;28;20132;-53
2020/12/17 10:35:12;;;;;;;43.90;21.40;;;;;;;5.09;70.34;100615.69;5013198;28;20120;-55
2020/12/17 10:37:40;;;;;;;41.88;22.00;;;;;;;4.99;70.48;100618.59;5010375;28;20049;-54
2020/12/17 10:40:06;;;;;;;44.80;22.63;;;;;;;4.89;71.32;100609.91;5010686;28;20132;-54
2020/12/17 10:42:32;;;;;;;42.00;21.13;;;;;;;5.23;73.79;100606.09;5010088;28;20076;-54
2020/12/17 10:44:57;;;;;;;38.75;20.02;;;;;;;4.90;70.98;100608.06;5011706;28;20072;-54
2020/12/17 10:47:23;;;;;;;38.45;20.00;;;;;;;4.87;70.50;100609.25;5013922;28;20040;-54
2020/12/17 10:49:49;;;;;;;44.60;21.75;;;;;;;4.79;70.87;100606.59;5030716;28;20041;-54
2020/12/17 10:52:14;;;;;;;44.90;19.23;;;;;;;5.15;71.30;100593.56;5010798;28;20116;-54
2020/12/17 10:54:40;;;;;;;37.65;20.02;;;;;;;4.97;71.24;100604.50;5015426;28;20573;-54
2020/12/17 10:57:06;;;;;;;42.30;20.20;;;;;;;4.83;70.99;100610.63;5016927;28;20132;-54
2020/12/17 10:59:32;;;;;;;38.58;19.25;;;;;;;4.77;71.02;100608.59;4997735;28;20060;-54
2020/12/17 11:01:58;;;;;;;40.22;20.75;;;;;;;5.23;70.63;100590.00;5008215;28;20044;-54
2020/12/17 11:04:24;;;;;;;42.55;20.52;;;;;;;5.39;69.52;100596.13;5013212;28;20551;-54
2020/12/17 11:06:50;;;;;;;48.78;22.48;;;;;;;5.03;70.71;100613.72;5009939;28;20044;-53
2020/12/17 11:09:16;;;;;;;42.17;20.75;;;;;;;5.06;70.70;100611.53;5013322;28;20564;-56
2020/12/17 11:11:42;;;;;;;41.30;19.73;;;;;;;5.54;72.75;100606.13;5030102;28;20113;-54
2020/12/17 11:14:07;;;;;;;40.65;20.42;;;;;;;5.18;69.90;100595.91;4997390;28;20125;-54
2020/12/17 11:16:33;;;;;;;42.30;21.08;;;;;;;5.03;70.57;100611.03;4993737;28;20044;-55
2020/12/17 11:19:00;;;;;;;44.08;22.45;;;;;;;5.68;73.80;100594.59;5024054;28;20049;-52
2020/12/17 11:21:26;;;;;;;41.20;22.10;;;;;;;5.33;69.63;100604.88;4992549;28;20110;-53
2020/12/17 11:23:51;;;;;;;39.65;20.80;;;;;;;5.78;72.13;100604.09;4994362;28;20643;-54
2020/12/17 11:26:17;;;;;;;41.65;20.58;;;;;;;5.48;71.92;100613.00;5009352;28;20120;-54
2020/12/17 11:28:43;;;;;;;39.85;19.30;;;;;;;5.26;69.75;100597.72;5023752;28;20037;-53
2020/12/17 11:31:08;;;;;;;39.05;21.77;;;;;;;5.36;69.37;100603.69;5009119;28;20049;-52
2020/12/17 11:33:34;;;;;;;41.60;20.45;;;;;;;5.29;69.16;100587.47;5008929;28;20175;-53
2020/12/17 11:36:00;;;;;;;43.80;21.65;;;;;;;5.72;68.99;100590.56;5003274;28;20486;-54
2020/12/17 11:38:26;;;;;;;46.20;21.90;;;;;;;5.01;70.78;100586.25;4997688;28;20045;-53
2020/12/17 11:40:51;;;;;;;39.70;21.67;;;;;;;5.17;70.43;100594.25;4999959;28;20047;-53
2020/12/17 11:43:17;;;;;;;45.83;22.65;;;;;;;4.87;71.17;100584.28;5008799;28;20044;-53
2020/12/17 11:45:43;;;;;;;35.65;19.70;;;;;;;4.85;71.11;100572.91;5013523;28;20036;-54
2020/12/17 11:48:08;;;;;;;40.00;20.35;;;;;;;4.92;71.40;100557.84;5026868;28;20410;-53
2020/12/17 11:50:35;;;;;;;42.17;21.25;;;;;;;5.38;70.96;100561.44;5030692;28;20703;-54
2020/12/17 11:53:00;;;;;;;37.30;19.30;;;;;;;4.87;70.76;100566.38;5013799;28;20044;-55
2020/12/17 11:55:27;;;;;;;42.33;21.08;;;;;;;5.07;70.54;100569.50;5011162;28;20041;-53
2020/12/17 11:57:53;;;;;;;42.55;21.48;;;;;;;5.62;72.16;100547.88;5027294;28;20398;-53
2020/12/17 12:00:18;;;;;;;38.28;22.17;;;;;;;4.78;70.50;100562.06;5011451;28;20038;-54
2020/12/17 12:02:44;;;;;;;38.53;19.33;;;;;;;4.89;70.20;100579.59;5010928;28;20051;-53
2020/12/17 12:05:59;;;;;;;38.80;19.50;;;;;;;5.28;70.78;100580.44;5013573;28;20040;-53
2020/12/17 12:08:25;;;;;;;42.78;20.58;;;;;;;4.98;70.65;100575.88;5010290;28;20045;-52
2020/12/17 12:10:50;;;;;;;44.75;20.33;;;;;;;5.38;72.85;100588.25;5031037;28;20044;-54
2020/12/17 12:13:16;;;;;;;38.08;19.50;;;;;;;5.23;69.60;100573.94;5009129;28;20034;-54
2020/12/17 12:15:41;;;;;;;35.53;19.50;;;;;;;5.17;69.63;100585.38;4994251;28;20060;-53
2020/12/17 12:18:07;;;;;;;34.85;17.90;;;;;;;5.21;70.92;100573.25;4992663;28;20086;-53
2020/12/17 12:20:32;;;;;;;38.40;20.35;;;;;;;4.86;70.60;100580.78;4991815;28;20037;-53
2020/12/17 12:22:59;;;;;;;37.92;19.58;;;;;;;5.07;69.85;100578.38;4992920;28;20056;-52
2020/12/17 12:25:25;;;;;;;38.90;18.38;;;;;;;5.13;71.12;100573.31;4987616;28;20175;-52
2020/12/17 12:27:51;;;;;;;44.50;22.13;;;;;;;4.97;71.03;100592.97;4998974;28;20082;-53
2020/12/17 12:30:16;;;;;;;41.15;18.83;;;;;;;4.90;70.92;100587.47;5012309;28;20124;-53
2020/12/17 12:32:42;;;;;;;43.90;21.27;;;;;;;4.98;70.68;100603.50;5009281;28;20036;-55
2020/12/17 12:35:08;;;;;;;38.78;20.33;;;;;;;4.98;70.80;100608.03;5013116;28;20036;-53
2020/12/17 12:37:33;;;;;;;42.95;20.85;;;;;;;5.15;71.04;100612.34;5010487;28;20052;-53
2020/12/17 12:39:59;;;;;;;41.22;20.90;;;;;;;4.98;71.15;100616.91;5026160;28;20033;-54
2020/12/17 12:42:26;;;;;;;40.25;20.15;;;;;;;5.04;71.14;100623.44;5011917;28;20271;-54
2020/12/17 12:44:54;;;;;;;45.13;19.80;;;;;;;5.15;70.70;100611.50;5011634;28;20075;-54
2020/12/17 12:47:20;;;;;;;40.58;20.30;;;;;;;5.15;72.79;100627.56;5010062;28;20040;-53
2020/12/17 12:49:47;;;;;;;36.17;18.02;;;;;;;5.03;71.30;100619.91;5026355;28;20033;-53
2020/12/17 12:52:13;;;;;;;37.55;20.17;;;;;;;5.55;75.11;100611.28;5030345;28;20060;-52
2020/12/17 12:54:38;;;;;;;40.58;20.27;;;;;;;5.02;70.93;100617.41;5029693;28;20048;-53
2020/12/17 12:57:03;;;;;;;46.90;21.98;;;;;;;5.01;71.55;100613.06;5018409;28;20395;-55
2020/12/17 12:59:31;;;;;;;38.67;19.85;;;;;;;4.91;71.61;100607.91;5011853;28;20064;-53
2020/12/17 13:01:59;;;;;;;39.90;21.00;;;;;;;5.02;71.72;100609.38;5013025;28;20045;-53
2020/12/17 13:04:25;;;;;;;42.13;20.73;;;;;;;5.10;70.90;100595.94;5009859;28;20064;-53
2020/12/17 13:06:51;;;;;;;38.92;19.08;;;;;;;5.31;71.27;100592.63;5010679;28;20079;-54
2020/12/17 13:09:18;;;;;;;37.05;19.50;;;;;;;4.86;71.77;100602.22;5011592;28;20165;-53
2020/12/17 13:11:43;;;;;;;37.00;18.85;;;;;;;4.84;72.88;100595.38;4991243;28;20045;-53
2020/12/17 13:14:09;;;;;;;38.65;17.98;;;;;;;4.87;71.71;100592.34;5005677;28;20449;-53
2020/12/17 13:16:35;;;;;;;36.72;19.73;;;;;;;4.83;73.23;100597.22;5043783;28;20033;-53
2020/12/17 13:19:02;;;;;;;35.42;18.40;;;;;;;4.81;72.00;100598.41;5006893;28;20049;-54
2020/12/17 13:21:29;;;;;;;37.80;19.45;;;;;;;4.85;72.67;100602.38;5024986;28;20043;-53
2020/12/17 13:23:55;;;;;;;37.33;19.58;;;;;;;5.16;71.18;100602.44;4990843;28;20129;-54
2020/12/17 13:26:21;;;;;;;38.05;20.58;;;;;;;4.91;72.08;100599.03;4990706;28;20087;-53
2020/12/17 13:28:48;;;;;;;37.58;19.85;;;;;;;5.06;74.30;100605.34;5020091;28;20094;-52
2020/12/17 13:31:15;;;;;;;39.38;18.85;;;;;;;5.75;76.06;100603.63;5012426;28;20055;-53
2020/12/17 13:33:41;;;;;;;40.35;20.33;;;;;;;5.05;71.76;100611.72;5010709;28;20037;-53
2020/12/17 13:36:09;;;;;;;37.47;20.65;;;;;;;5.01;73.04;100608.53;4999259;28;20495;-51
2020/12/17 13:38:36;;;;;;;37.88;20.05;;;;;;;4.96;71.80;100607.41;4990669;28;20041;-52
2020/12/17 13:41:02;;;;;;;40.42;21.23;;;;;;;4.87;72.50;100606.56;4992908;28;20041;-53
2020/12/17 13:43:28;;;;;;;41.17;19.67;;;;;;;5.08;nan;100595.25;4992734;28;20044;-52
2020/12/17 13:45:53;;;;;;;36.35;19.60;;;;;;;5.01;72.96;100599.66;4992785;28;20038;-54
2020/12/17 13:48:19;;;;;;;37.50;19.10;;;;;;;5.32;74.34;100605.88;5008906;28;20036;-55
2020/12/17 13:50:44;;;;;;;39.75;19.48;;;;;;;4.98;72.08;100598.16;4991512;28;20410;-53
2020/12/17 13:53:12;;;;;;;35.47;18.70;;;;;;;5.00;72.41;100596.13;4991963;28;20039;-53
2020/12/17 13:55:41;;;;;;;35.60;18.23;;;;;;;5.18;72.34;100593.22;5010536;28;20184;-54
2020/12/17 13:58:07;;;;;;;35.00;20.10;;;;;;;4.93;73.44;100589.81;4996885;28;20056;-56
2020/12/17 14:00:34;;;;;;;41.28;20.95;;;;;;;5.09;74.71;100588.91;5008419;28;20451;-54
2020/12/17 14:03:00;;;;;;;38.17;20.13;;;;;;;5.08;72.07;100595.25;5012649;28;20049;-53
2020/12/17 14:05:26;;;;;;;44.42;22.20;;;;;;;5.16;73.74;100592.56;4990479;28;20033;-53
2020/12/17 14:07:51;;;;;;;44.53;23.25;;;;;;;4.84;73.40;100592.69;4988965;28;20056;-52
2020/12/17 14:10:18;;;;;;;42.70;21.85;;;;;;;4.71;73.68;100594.06;4995333;28;20487;-52
2020/12/17 14:12:45;;;;;;;39.72;20.42;;;;;;;4.86;72.86;100596.84;5005699;28;20042;-54
2020/12/17 14:15:11;;;;;;;40.70;21.50;;;;;;;4.94;73.89;100596.84;4988307;28;20059;-53
2020/12/17 14:17:37;;;;;;;41.35;21.98;;;;;;;4.68;73.38;100606.97;4992174;28;20478;-55
2020/12/17 14:20:03;;;;;;;39.40;21.25;;;;;;;4.63;74.93;100598.59;5008709;28;20124;-52
2020/12/17 14:22:29;;;;;;;39.70;19.30;;;;;;;5.04;73.31;100596.63;4994337;28;20033;-51
2020/12/17 14:24:54;;;;;;;38.55;20.75;;;;;;;4.82;73.65;100584.00;4992997;28;20532;-53
2020/12/17 14:27:20;;;;;;;35.58;19.48;;;;;;;4.81;74.27;100579.66;4993124;28;20052;-54
2020/12/17 14:29:45;;;;;;;36.95;19.45;;;;;;;4.65;74.10;100575.16;5009010;28;20048;-52
2020/12/17 14:32:11;;;;;;;38.97;20.70;;;;;;;4.61;74.25;100585.41;5027208;28;20049;-54
2020/12/17 14:34:37;;;;;;;39.28;20.83;;;;;;;4.78;75.15;100583.50;5007647;28;20053;-54
2020/12/17 14:37:04;;;;;;;44.25;21.50;;;;;;;4.71;74.39;100593.25;5006617;28;20499;-53
2020/12/17 14:39:31;;;;;;;41.33;20.13;;;;;;;4.58;74.94;100599.13;5008457;28;20051;-55
2020/12/17 14:41:57;;;;;;;40.72;20.55;;;;;;;4.58;74.83;100604.47;4994252;28;20044;-52
2020/12/17 14:44:25;;;;;;;37.75;18.88;;;;;;;4.68;75.88;100596.25;4994363;28;20041;-54
2020/12/17 14:46:52;;;;;;;34.60;18.33;;;;;;;4.87;76.05;100601.22;5008184;28;20034;-54
2020/12/17 14:49:17;;;;;;;37.47;19.17;;;;;;;4.85;75.97;100613.94;5025110;28;20425;-52
2020/12/17 14:51:42;;;;;;;38.67;19.80;;;;;;;4.80;75.29;100627.03;5005439;28;20391;-53
2020/12/17 14:54:08;;;;;;;38.70;19.35;;;;;;;4.68;74.76;100634.59;5023047;28;20123;-54
2020/12/17 14:56:34;;;;;;;37.88;18.58;;;;;;;4.59;75.44;100640.97;4995766;28;20053;-53
2020/12/17 14:59:00;;;;;;;39.22;20.70;;;;;;;5.00;74.44;100636.34;5007941;28;20049;-52
2020/12/17 15:01:26;;;;;;;42.08;20.48;;;;;;;4.77;74.38;100639.91;4993504;28;20037;-53
2020/12/17 15:03:52;;;;;;;42.78;19.90;;;;;;;4.71;75.28;100647.66;4990291;28;20071;-53
2020/12/17 15:06:17;;;;;;;40.75;20.42;;;;;;;4.81;75.41;100651.97;5025621;28;20383;-51
2020/12/17 15:08:43;;;;;;;42.35;21.48;;;;;;;4.59;74.97;100656.19;5010746;28;20061;-53
2020/12/17 15:11:08;;;;;;;37.28;19.67;;;;;;;4.80;75.50;100655.66;4989587;28;20041;-54
2020/12/17 15:13:34;;;;;;;43.95;22.02;;;;;;;4.62;75.07;100662.03;5026741;28;20051;-52
2020/12/17 15:16:00;;;;;;;40.70;19.52;;;;;;;4.63;75.41;100663.69;5026671;28;20041;-55
2020/12/17 15:18:26;;;;;;;39.80;21.52;;;;;;;4.60;75.34;100677.44;5007780;28;20041;-55
2020/12/17 15:21:03;;;;;;;37.67;20.00;;;;;;;4.56;75.10;100677.94;5025295;28;20479;-54
2020/12/17 15:23:29;;;;;;;37.83;20.58;;;;;;;4.49;75.11;100679.63;4991560;28;20041;-55
2020/12/17 15:25:58;;;;;;;42.13;20.17;;;;;;;4.57;77.76;100671.59;5008747;28;20072;-54
2020/12/17 15:28:24;;;;;;;35.67;18.52;;;;;;;4.66;74.72;100679.44;5006336;28;20048;-55
2020/12/17 15:30:51;;;;;;;42.20;21.20;;;;;;;4.60;74.64;100681.97;5009095;28;20033;-52
2020/12/17 15:33:17;;;;;;;34.78;19.00;;;;;;;4.61;75.95;100683.66;5011199;28;20041;-54
2020/12/17 15:35:45;;;;;;;35.40;18.58;;;;;;;4.44;75.14;100688.16;5024666;28;20422;-53
2020/12/17 15:38:10;;;;;;;37.33;21.17;;;;;;;4.55;74.82;100685.16;5007524;28;20049;-54
2020/12/17 15:40:36;;;;;;;36.33;18.27;;;;;;;4.62;74.37;100694.16;5008598;28;20413;-55
2020/12/17 15:43:02;;;;;;;35.22;18.48;;;;;;;4.57;75.23;100687.66;5008029;28;20091;-54
2020/12/17 15:45:28;;;;;;;36.35;19.45;;;;;;;4.40;75.74;100694.00;5007974;28;20072;-53
2020/12/17 15:47:54;;;;;;;34.88;18.70;;;;;;;4.38;75.40;100702.22;5008981;28;20041;-53
2020/12/17 15:50:19;;;;;;;34.30;18.25;;;;;;;4.34;75.57;100724.97;5028713;28;20024;-55
2020/12/17 15:52:45;;;;;;;39.25;18.65;;;;;;;4.21;75.49;100714.75;5013295;28;20429;-53
2020/12/17 15:55:11;;;;;;;34.88;19.55;;;;;;;4.13;75.92;100721.94;5006205;28;20068;-54
2020/12/17 15:57:39;;;;;;;38.47;18.52;;;;;;;4.18;76.13;100711.56;4995711;28;20061;-54
2020/12/17 16:00:06;;;;;;;38.83;20.13;;;;;;;4.21;75.72;100712.06;5028699;28;20395;-53
2020/12/17 16:02:32;;;;;;;35.25;19.42;;;;;;;4.29;75.69;100716.59;5012103;28;20033;-54
2020/12/17 16:04:58;;;;;;;37.17;18.27;;;;;;;4.48;75.21;100715.44;5022898;28;20036;-54
2020/12/17 16:07:24;;;;;;;40.92;20.15;;;;;;;4.44;75.20;100714.94;5010414;28;20048;-52
2020/12/17 16:09:50;;;;;;;43.60;19.25;;;;;;;4.48;75.45;100708.25;5028496;28;20510;-53
2020/12/17 16:12:17;;;;;;;35.20;17.83;;;;;;;4.52;74.71;100703.38;5012655;28;20045;-52
2020/12/17 16:14:45;;;;;;;29.40;16.25;;;;;;;4.58;75.03;100708.91;5026072;28;20170;-52
2020/12/17 16:17:12;;;;;;;36.05;17.13;;;;;;;4.75;74.17;100723.13;5006056;28;20447;-53
2020/12/17 16:19:40;;;;;;;32.83;15.93;;;;;;;4.63;75.05;100727.13;4977157;28;20139;-55
2020/12/17 16:22:06;;;;;;;38.10;18.38;;;;;;;4.68;74.45;100724.81;5009306;28;20390;-54
2020/12/17 16:24:32;;;;;;;33.88;17.73;;;;;;;4.67;75.50;100723.97;5025757;28;20048;-53